sensor_id;sensor_type;location;lat;lon;timestamp;temperature;humidity
11650;DHT22;5881;48.522;7.682;2022-08-01T00:00:05;23.10;1.00
11650;DHT22;5881;48.522;7.682;2022-08-01T00:02:32;23.10;1.00
11650;DHT22;5881;48.522;7.682;2022-08-01T00:04:57;23.00;1.00
11650;DHT22;5881;48.522;7.682;2022-08-01T00:07:23;22.90;1.00
11650;DHT22;5881;48.522;7.682;2022-08-01T00:09:49;22.80;1.00
11650;DHT22;5881;48.522;7.682;2022-08-01T00:12:14;22.80;1.00
11650;DHT22;5881;48.522;7.682;2022-08-01T00:14:40;22.90;1.00
11650;DHT22;5881;48.522;7.682;2022-08-01T00:17:06;22.80;1.00
11650;DHT22;5881;48.522;7.682;2022-08-01T00:19:31;22.80;1.00
11650;DHT22;5881;48.522;7.682;2022-08-01T00:21:57;22.70;1.00
11650;DHT22;5881;48.522;7.682;2022-08-01T00:24:23;22.60;1.00
11650;DHT22;5881;48.522;7.682;2022-08-01T00:26:48;22.60;1.00
11650;DHT22;5881;48.522;7.682;2022-08-01T00:29:14;22.50;1.00
11650;DHT22;5881;48.522;7.682;2022-08-01T00:31:39;22.50;1.00
11650;DHT22;5881;48.522;7.682;2022-08-01T00:34:05;22.40;1.00
11650;DHT22;5881;48.522;7.682;2022-08-01T00:36:31;22.40;1.00
11650;DHT22;5881;48.522;7.682;2022-08-01T00:38:56;22.40;1.00
11650;DHT22;5881;48.522;7.682;2022-08-01T00:41:22;22.30;1.00
11650;DHT22;5881;48.522;7.682;2022-08-01T00:43:47;22.10;1.00
11650;DHT22;5881;48.522;7.682;2022-08-01T00:46:13;22.00;1.00
11650;DHT22;5881;48.522;7.682;2022-08-01T00:48:39;21.90;1.00
11650;DHT22;5881;48.522;7.682;2022-08-01T00:51:05;21.80;1.00
11650;DHT22;5881;48.522;7.682;2022-08-01T00:53:30;21.70;1.00
11650;DHT22;5881;48.522;7.682;2022-08-01T00:55:56;21.60;1.00
11650;DHT22;5881;48.522;7.682;2022-08-01T00:58:23;21.50;1.00
11650;DHT22;5881;48.522;7.682;2022-08-01T01:00:49;21.50;1.00
11650;DHT22;5881;48.522;7.682;2022-08-01T01:03:14;21.40;1.00
11650;DHT22;5881;48.522;7.682;2022-08-01T01:05:48;21.40;1.00
11650;DHT22;5881;48.522;7.682;2022-08-01T01:08:22;21.40;1.00
11650;DHT22;5881;48.522;7.682;2022-08-01T01:13:23;21.30;1.00
11650;DHT22;5881;48.522;7.682;2022-08-01T01:15:57;21.30;1.00
11650;DHT22;5881;48.522;7.682;2022-08-01T01:18:27;21.20;1.00
11650;DHT22;5881;48.522;7.682;2022-08-01T01:26:36;21.00;1.00
11650;DHT22;5881;48.522;7.682;2022-08-01T01:29:18;21.10;1.00
11650;DHT22;5881;48.522;7.682;2022-08-01T01:31:55;21.10;1.00
11650;DHT22;5881;48.522;7.682;2022-08-01T01:34:22;21.10;1.00
11650;DHT22;5881;48.522;7.682;2022-08-01T01:36:50;21.10;1.00
11650;DHT22;5881;48.522;7.682;2022-08-01T01:39:18;21.10;1.00
11650;DHT22;5881;48.522;7.682;2022-08-01T01:41:45;21.10;1.00
11650;DHT22;5881;48.522;7.682;2022-08-01T01:44:11;21.00;1.00
11650;DHT22;5881;48.522;7.682;2022-08-01T01:46:39;20.90;1.00
11650;DHT22;5881;48.522;7.682;2022-08-01T01:49:07;20.70;1.00
11650;DHT22;5881;48.522;7.682;2022-08-01T01:51:37;20.70;1.00
11650;DHT22;5881;48.522;7.682;2022-08-01T01:54:04;20.70;1.00
11650;DHT22;5881;48.522;7.682;2022-08-01T01:56:32;20.70;1.00
11650;DHT22;5881;48.522;7.682;2022-08-01T01:59:01;20.70;1.00
11650;DHT22;5881;48.522;7.682;2022-08-01T02:01:30;20.70;1.00
11650;DHT22;5881;48.522;7.682;2022-08-01T02:03:56;20.60;1.00
11650;DHT22;5881;48.522;7.682;2022-08-01T02:06:23;20.50;1.00
11650;DHT22;5881;48.522;7.682;2022-08-01T02:08:52;20.50;1.00
11650;DHT22;5881;48.522;7.682;2022-08-01T02:11:20;20.50;1.00
11650;DHT22;5881;48.522;7.682;2022-08-01T02:13:57;20.40;1.00
11650;DHT22;5881;48.522;7.682;2022-08-01T02:16:26;20.40;1.00
11650;DHT22;5881;48.522;7.682;2022-08-01T02:18:52;20.30;1.00
11650;DHT22;5881;48.522;7.682;2022-08-01T02:21:27;20.20;1.00
11650;DHT22;5881;48.522;7.682;2022-08-01T02:23:55;20.20;1.00
11650;DHT22;5881;48.522;7.682;2022-08-01T02:26:25;20.20;1.00
11650;DHT22;5881;48.522;7.682;2022-08-01T02:28:57;20.20;1.00
11650;DHT22;5881;48.522;7.682;2022-08-01T02:31:25;20.20;1.00
11650;DHT22;5881;48.522;7.682;2022-08-01T02:34:03;20.20;1.00
11650;DHT22;5881;48.522;7.682;2022-08-01T02:36:33;20.20;1.00
11650;DHT22;5881;48.522;7.682;2022-08-01T02:39:02;20.20;1.00
11650;DHT22;5881;48.522;7.682;2022-08-01T02:41:29;20.10;1.00
11650;DHT22;5881;48.522;7.682;2022-08-01T02:43:59;20.10;1.00
11650;DHT22;5881;48.522;7.682;2022-08-01T02:46:36;20.00;1.00
11650;DHT22;5881;48.522;7.682;2022-08-01T02:49:03;20.10;1.00
11650;DHT22;5881;48.522;7.682;2022-08-01T02:51:31;20.30;1.00
11650;DHT22;5881;48.522;7.682;2022-08-01T02:53:57;20.20;1.00
11650;DHT22;5881;48.522;7.682;2022-08-01T02:56:25;20.00;1.00
11650;DHT22;5881;48.522;7.682;2022-08-01T02:59:22;19.90;1.00
11650;DHT22;5881;48.522;7.682;2022-08-01T03:01:47;19.80;1.00
11650;DHT22;5881;48.522;7.682;2022-08-01T03:04:14;19.80;1.00
11650;DHT22;5881;48.522;7.682;2022-08-01T03:06:43;19.70;1.00
11650;DHT22;5881;48.522;7.682;2022-08-01T03:09:10;19.50;1.00
11650;DHT22;5881;48.522;7.682;2022-08-01T03:11:37;19.50;1.00
11650;DHT22;5881;48.522;7.682;2022-08-01T03:14:06;19.50;1.00
11650;DHT22;5881;48.522;7.682;2022-08-01T03:16:35;19.30;1.00
11650;DHT22;5881;48.522;7.682;2022-08-01T03:19:04;19.30;1.00
11650;DHT22;5881;48.522;7.682;2022-08-01T03:21:31;19.30;1.00
11650;DHT22;5881;48.522;7.682;2022-08-01T03:23:59;19.30;1.00
11650;DHT22;5881;48.522;7.682;2022-08-01T03:26:31;19.30;1.00
11650;DHT22;5881;48.522;7.682;2022-08-01T03:29:02;19.20;1.00
11650;DHT22;5881;48.522;7.682;2022-08-01T03:31:33;19.20;1.00
11650;DHT22;5881;48.522;7.682;2022-08-01T03:34:00;19.10;1.00
11650;DHT22;5881;48.522;7.682;2022-08-01T03:36:28;19.00;1.00
11650;DHT22;5881;48.522;7.682;2022-08-01T03:38:57;19.00;1.00
11650;DHT22;5881;48.522;7.682;2022-08-01T03:41:27;19.10;1.00
11650;DHT22;5881;48.522;7.682;2022-08-01T03:44:03;19.10;1.00
11650;DHT22;5881;48.522;7.682;2022-08-01T03:46:38;19.00;1.00
11650;DHT22;5881;48.522;7.682;2022-08-01T03:49:11;19.00;1.00
11650;DHT22;5881;48.522;7.682;2022-08-01T03:51:38;19.00;1.30
11650;DHT22;5881;48.522;7.682;2022-08-01T03:54:05;19.00;1.00
11650;DHT22;5881;48.522;7.682;2022-08-01T03:56:33;18.90;19.10
11650;DHT22;5881;48.522;7.682;2022-08-01T03:58:59;18.90;1.00
11650;DHT22;5881;48.522;7.682;2022-08-01T04:01:27;18.80;24.10
11650;DHT22;5881;48.522;7.682;2022-08-01T04:03:54;18.70;40.70
11650;DHT22;5881;48.522;7.682;2022-08-01T04:06:20;18.60;95.70
11650;DHT22;5881;48.522;7.682;2022-08-01T04:08:46;18.60;99.90
11650;DHT22;5881;48.522;7.682;2022-08-01T04:11:21;18.60;99.90
11650;DHT22;5881;48.522;7.682;2022-08-01T04:13:48;18.60;99.90
11650;DHT22;5881;48.522;7.682;2022-08-01T04:16:13;18.60;99.90
11650;DHT22;5881;48.522;7.682;2022-08-01T04:18:39;18.60;99.90
11650;DHT22;5881;48.522;7.682;2022-08-01T04:21:05;18.50;99.90
11650;DHT22;5881;48.522;7.682;2022-08-01T04:23:31;18.50;99.90
11650;DHT22;5881;48.522;7.682;2022-08-01T04:25:57;18.60;99.90
11650;DHT22;5881;48.522;7.682;2022-08-01T04:28:24;18.70;99.90
11650;DHT22;5881;48.522;7.682;2022-08-01T04:30:54;18.60;99.90
11650;DHT22;5881;48.522;7.682;2022-08-01T04:33:21;18.70;99.90
11650;DHT22;5881;48.522;7.682;2022-08-01T04:35:48;18.70;99.90
11650;DHT22;5881;48.522;7.682;2022-08-01T04:38:19;18.70;99.90
11650;DHT22;5881;48.522;7.682;2022-08-01T04:40:46;18.70;99.90
11650;DHT22;5881;48.522;7.682;2022-08-01T04:43:14;18.70;99.90
11650;DHT22;5881;48.522;7.682;2022-08-01T04:45:40;18.70;99.90
11650;DHT22;5881;48.522;7.682;2022-08-01T04:48:09;18.80;99.90
11650;DHT22;5881;48.522;7.682;2022-08-01T04:50:35;18.90;99.90
11650;DHT22;5881;48.522;7.682;2022-08-01T04:53:01;19.00;99.90
11650;DHT22;5881;48.522;7.682;2022-08-01T04:55:28;19.10;99.90
11650;DHT22;5881;48.522;7.682;2022-08-01T04:57:54;19.20;65.40
11650;DHT22;5881;48.522;7.682;2022-08-01T05:00:20;19.30;34.00
11650;DHT22;5881;48.522;7.682;2022-08-01T05:02:45;19.40;12.40
11650;DHT22;5881;48.522;7.682;2022-08-01T05:05:12;19.40;13.60
11650;DHT22;5881;48.522;7.682;2022-08-01T05:07:37;19.40;35.50
11650;DHT22;5881;48.522;7.682;2022-08-01T05:10:06;20.00;5.10
11650;DHT22;5881;48.522;7.682;2022-08-01T05:12:32;20.60;1.00
11650;DHT22;5881;48.522;7.682;2022-08-01T05:14:59;21.60;1.00
11650;DHT22;5881;48.522;7.682;2022-08-01T05:17:24;22.00;1.00
11650;DHT22;5881;48.522;7.682;2022-08-01T05:19:51;22.40;1.00
11650;DHT22;5881;48.522;7.682;2022-08-01T05:22:16;22.90;1.00
11650;DHT22;5881;48.522;7.682;2022-08-01T05:24:42;23.10;1.00
11650;DHT22;5881;48.522;7.682;2022-08-01T05:27:08;23.70;1.00
11650;DHT22;5881;48.522;7.682;2022-08-01T05:29:34;23.90;1.00
11650;DHT22;5881;48.522;7.682;2022-08-01T05:32:00;23.40;1.00
11650;DHT22;5881;48.522;7.682;2022-08-01T05:34:26;22.80;1.00
11650;DHT22;5881;48.522;7.682;2022-08-01T05:36:52;22.30;1.00
11650;DHT22;5881;48.522;7.682;2022-08-01T05:39:17;22.20;1.00
11650;DHT22;5881;48.522;7.682;2022-08-01T05:41:43;22.00;1.00
11650;DHT22;5881;48.522;7.682;2022-08-01T05:44:09;22.00;1.00
11650;DHT22;5881;48.522;7.682;2022-08-01T05:46:35;22.20;1.00
11650;DHT22;5881;48.522;7.682;2022-08-01T05:49:03;22.30;1.00
11650;DHT22;5881;48.522;7.682;2022-08-01T05:51:29;22.50;1.00
11650;DHT22;5881;48.522;7.682;2022-08-01T05:53:55;22.70;1.00
11650;DHT22;5881;48.522;7.682;2022-08-01T05:56:21;23.70;1.00
11650;DHT22;5881;48.522;7.682;2022-08-01T05:58:47;24.20;1.00
11650;DHT22;5881;48.522;7.682;2022-08-01T06:01:13;24.90;1.00
11650;DHT22;5881;48.522;7.682;2022-08-01T06:03:38;26.00;1.00
11650;DHT22;5881;48.522;7.682;2022-08-01T06:06:04;27.00;1.00
11650;DHT22;5881;48.522;7.682;2022-08-01T06:08:30;26.90;1.00
11650;DHT22;5881;48.522;7.682;2022-08-01T06:10:57;27.80;1.00
11650;DHT22;5881;48.522;7.682;2022-08-01T06:13:23;27.60;1.00
11650;DHT22;5881;48.522;7.682;2022-08-01T06:15:48;26.70;1.00
11650;DHT22;5881;48.522;7.682;2022-08-01T06:18:14;25.30;1.00
11650;DHT22;5881;48.522;7.682;2022-08-01T06:20:40;24.70;1.00
11650;DHT22;5881;48.522;7.682;2022-08-01T06:23:07;24.60;1.00
11650;DHT22;5881;48.522;7.682;2022-08-01T06:25:33;24.70;1.00
11650;DHT22;5881;48.522;7.682;2022-08-01T06:27:59;26.90;1.00
11650;DHT22;5881;48.522;7.682;2022-08-01T06:30:25;28.60;1.00
11650;DHT22;5881;48.522;7.682;2022-08-01T06:32:51;30.00;1.00
11650;DHT22;5881;48.522;7.682;2022-08-01T06:35:17;30.40;1.00
11650;DHT22;5881;48.522;7.682;2022-08-01T06:37:43;30.60;1.00
11650;DHT22;5881;48.522;7.682;2022-08-01T06:40:11;30.50;1.00
11650;DHT22;5881;48.522;7.682;2022-08-01T06:42:37;30.90;1.00
11650;DHT22;5881;48.522;7.682;2022-08-01T06:45:04;30.80;1.00
11650;DHT22;5881;48.522;7.682;2022-08-01T06:47:30;31.30;1.00
11650;DHT22;5881;48.522;7.682;2022-08-01T06:49:56;31.30;1.00
11650;DHT22;5881;48.522;7.682;2022-08-01T06:52:22;31.20;1.00
11650;DHT22;5881;48.522;7.682;2022-08-01T06:54:47;30.20;1.00
11650;DHT22;5881;48.522;7.682;2022-08-01T06:57:13;30.90;1.00
11650;DHT22;5881;48.522;7.682;2022-08-01T06:59:39;30.70;1.00
11650;DHT22;5881;48.522;7.682;2022-08-01T07:02:04;30.80;1.00
11650;DHT22;5881;48.522;7.682;2022-08-01T07:04:30;30.90;1.00
11650;DHT22;5881;48.522;7.682;2022-08-01T07:06:56;31.60;1.00
11650;DHT22;5881;48.522;7.682;2022-08-01T07:09:22;30.80;1.00
11650;DHT22;5881;48.522;7.682;2022-08-01T07:11:48;31.00;99.90
11650;DHT22;5881;48.522;7.682;2022-08-01T07:14:13;31.10;1.00
11650;DHT22;5881;48.522;7.682;2022-08-01T07:16:39;29.90;1.00
11650;DHT22;5881;48.522;7.682;2022-08-01T07:19:05;30.00;99.90
11650;DHT22;5881;48.522;7.682;2022-08-01T07:21:30;30.60;1.00
11650;DHT22;5881;48.522;7.682;2022-08-01T07:23:56;31.40;1.00
11650;DHT22;5881;48.522;7.682;2022-08-01T07:26:22;30.30;1.00
11650;DHT22;5881;48.522;7.682;2022-08-01T07:28:47;29.40;1.00
11650;DHT22;5881;48.522;7.682;2022-08-01T07:31:13;29.00;1.00
11650;DHT22;5881;48.522;7.682;2022-08-01T07:33:38;29.60;1.00
11650;DHT22;5881;48.522;7.682;2022-08-01T07:36:04;29.70;1.00
11650;DHT22;5881;48.522;7.682;2022-08-01T07:38:30;30.80;1.00
11650;DHT22;5881;48.522;7.682;2022-08-01T07:40:55;30.40;1.00
11650;DHT22;5881;48.522;7.682;2022-08-01T07:43:22;30.40;1.00
11650;DHT22;5881;48.522;7.682;2022-08-01T07:45:47;30.80;1.00
11650;DHT22;5881;48.522;7.682;2022-08-01T07:48:13;31.80;1.00
11650;DHT22;5881;48.522;7.682;2022-08-01T07:50:38;33.40;1.00
11650;DHT22;5881;48.522;7.682;2022-08-01T07:53:04;32.40;1.00
11650;DHT22;5881;48.522;7.682;2022-08-01T07:55:30;33.90;1.00
11650;DHT22;5881;48.522;7.682;2022-08-01T07:57:55;34.60;1.00
11650;DHT22;5881;48.522;7.682;2022-08-01T08:00:21;34.30;1.00
11650;DHT22;5881;48.522;7.682;2022-08-01T08:02:46;33.80;1.00
11650;DHT22;5881;48.522;7.682;2022-08-01T08:05:12;35.10;1.00
11650;DHT22;5881;48.522;7.682;2022-08-01T08:07:38;33.90;1.00
11650;DHT22;5881;48.522;7.682;2022-08-01T08:10:05;33.50;1.00
11650;DHT22;5881;48.522;7.682;2022-08-01T08:12:31;32.40;1.00
11650;DHT22;5881;48.522;7.682;2022-08-01T08:14:57;32.50;1.00
11650;DHT22;5881;48.522;7.682;2022-08-01T08:17:25;33.90;1.00
11650;DHT22;5881;48.522;7.682;2022-08-01T08:19:50;34.00;1.00
11650;DHT22;5881;48.522;7.682;2022-08-01T08:22:16;33.40;1.00
11650;DHT22;5881;48.522;7.682;2022-08-01T08:24:42;33.70;1.00
11650;DHT22;5881;48.522;7.682;2022-08-01T08:27:07;35.10;1.00
11650;DHT22;5881;48.522;7.682;2022-08-01T08:29:33;35.20;1.00
11650;DHT22;5881;48.522;7.682;2022-08-01T08:31:59;34.10;1.00
11650;DHT22;5881;48.522;7.682;2022-08-01T08:34:26;34.60;1.00
11650;DHT22;5881;48.522;7.682;2022-08-01T08:36:53;35.00;1.00
11650;DHT22;5881;48.522;7.682;2022-08-01T08:39:20;34.60;1.00
11650;DHT22;5881;48.522;7.682;2022-08-01T08:41:46;35.90;1.00
11650;DHT22;5881;48.522;7.682;2022-08-01T08:44:12;36.60;1.00
11650;DHT22;5881;48.522;7.682;2022-08-01T08:46:41;36.00;1.00
11650;DHT22;5881;48.522;7.682;2022-08-01T08:49:08;36.50;1.00
11650;DHT22;5881;48.522;7.682;2022-08-01T08:51:38;35.70;1.00
11650;DHT22;5881;48.522;7.682;2022-08-01T08:54:05;35.50;1.00
11650;DHT22;5881;48.522;7.682;2022-08-01T08:56:31;36.40;1.00
11650;DHT22;5881;48.522;7.682;2022-08-01T08:59:00;35.70;1.00
11650;DHT22;5881;48.522;7.682;2022-08-01T09:01:26;35.80;1.00
11650;DHT22;5881;48.522;7.682;2022-08-01T09:03:53;35.80;1.00
11650;DHT22;5881;48.522;7.682;2022-08-01T09:06:19;36.80;1.00
11650;DHT22;5881;48.522;7.682;2022-08-01T09:08:45;36.70;1.00
11650;DHT22;5881;48.522;7.682;2022-08-01T09:11:11;36.40;1.00
11650;DHT22;5881;48.522;7.682;2022-08-01T09:13:37;35.50;1.00
11650;DHT22;5881;48.522;7.682;2022-08-01T09:16:04;36.40;1.00
11650;DHT22;5881;48.522;7.682;2022-08-01T09:18:36;35.40;1.00
11650;DHT22;5881;48.522;7.682;2022-08-01T09:21:13;34.90;1.00
11650;DHT22;5881;48.522;7.682;2022-08-01T09:23:48;34.40;1.00
11650;DHT22;5881;48.522;7.682;2022-08-01T09:26:16;34.50;1.00
11650;DHT22;5881;48.522;7.682;2022-08-01T09:28:43;34.00;1.00
11650;DHT22;5881;48.522;7.682;2022-08-01T09:31:15;33.70;1.00
11650;DHT22;5881;48.522;7.682;2022-08-01T09:33:58;34.80;1.00
11650;DHT22;5881;48.522;7.682;2022-08-01T09:36:42;36.60;1.00
11650;DHT22;5881;48.522;7.682;2022-08-01T09:39:13;34.80;1.00
11650;DHT22;5881;48.522;7.682;2022-08-01T09:41:39;34.70;1.00
11650;DHT22;5881;48.522;7.682;2022-08-01T09:44:05;36.50;1.00
11650;DHT22;5881;48.522;7.682;2022-08-01T09:46:31;36.80;1.00
11650;DHT22;5881;48.522;7.682;2022-08-01T09:48:59;37.70;1.00
11650;DHT22;5881;48.522;7.682;2022-08-01T09:51:30;36.20;1.00
11650;DHT22;5881;48.522;7.682;2022-08-01T09:53:57;34.40;1.00
11650;DHT22;5881;48.522;7.682;2022-08-01T09:56:23;35.90;1.00
11650;DHT22;5881;48.522;7.682;2022-08-01T09:58:58;36.20;1.00
11650;DHT22;5881;48.522;7.682;2022-08-01T10:01:24;35.80;1.00
11650;DHT22;5881;48.522;7.682;2022-08-01T10:04:19;34.90;1.00
11650;DHT22;5881;48.522;7.682;2022-08-01T10:06:47;35.60;1.00
11650;DHT22;5881;48.522;7.682;2022-08-01T10:09:27;35.00;1.00
11650;DHT22;5881;48.522;7.682;2022-08-01T10:11:54;35.10;1.00
11650;DHT22;5881;48.522;7.682;2022-08-01T10:14:22;35.50;1.00
11650;DHT22;5881;48.522;7.682;2022-08-01T10:16:48;34.60;1.00
11650;DHT22;5881;48.522;7.682;2022-08-01T10:19:15;34.20;1.00
11650;DHT22;5881;48.522;7.682;2022-08-01T10:21:41;34.50;1.00
11650;DHT22;5881;48.522;7.682;2022-08-01T10:24:11;35.60;1.00
11650;DHT22;5881;48.522;7.682;2022-08-01T10:26:38;36.60;1.00
11650;DHT22;5881;48.522;7.682;2022-08-01T10:29:05;36.70;1.00
11650;DHT22;5881;48.522;7.682;2022-08-01T10:31:31;36.10;1.00
11650;DHT22;5881;48.522;7.682;2022-08-01T10:33:59;35.50;1.00
11650;DHT22;5881;48.522;7.682;2022-08-01T10:36:25;35.40;1.00
11650;DHT22;5881;48.522;7.682;2022-08-01T10:38:54;36.10;1.00
11650;DHT22;5881;48.522;7.682;2022-08-01T10:41:21;36.10;1.00
11650;DHT22;5881;48.522;7.682;2022-08-01T10:43:47;36.60;1.00
11650;DHT22;5881;48.522;7.682;2022-08-01T10:46:13;34.10;1.00
11650;DHT22;5881;48.522;7.682;2022-08-01T10:49:01;35.50;1.00
11650;DHT22;5881;48.522;7.682;2022-08-01T10:51:28;35.60;1.00
11650;DHT22;5881;48.522;7.682;2022-08-01T10:53:54;35.60;1.00
11650;DHT22;5881;48.522;7.682;2022-08-01T10:56:26;36.00;1.00
11650;DHT22;5881;48.522;7.682;2022-08-01T10:59:07;35.80;1.00
11650;DHT22;5881;48.522;7.682;2022-08-01T11:01:33;34.00;1.00
11650;DHT22;5881;48.522;7.682;2022-08-01T11:04:14;33.70;1.00
11650;DHT22;5881;48.522;7.682;2022-08-01T11:07:02;32.60;1.00
11650;DHT22;5881;48.522;7.682;2022-08-01T11:09:31;31.90;1.00
11650;DHT22;5881;48.522;7.682;2022-08-01T11:12:06;32.20;1.00
11650;DHT22;5881;48.522;7.682;2022-08-01T11:17:46;31.10;1.00
11650;DHT22;5881;48.522;7.682;2022-08-01T11:20:26;30.60;1.00
11650;DHT22;5881;48.522;7.682;2022-08-01T11:25:28;34.40;1.00
11650;DHT22;5881;48.522;7.682;2022-08-01T11:30:50;35.20;1.00
11650;DHT22;5881;48.522;7.682;2022-08-01T11:33:18;33.90;1.00
11650;DHT22;5881;48.522;7.682;2022-08-01T11:38:35;32.80;1.00
11650;DHT22;5881;48.522;7.682;2022-08-01T11:43:58;31.90;1.00
11650;DHT22;5881;48.522;7.682;2022-08-01T11:49:26;30.30;1.00
11650;DHT22;5881;48.522;7.682;2022-08-01T11:57:22;30.00;1.00
11650;DHT22;5881;48.522;7.682;2022-08-01T11:59:53;30.40;1.00
11650;DHT22;5881;48.522;7.682;2022-08-01T12:07:20;29.90;1.00
11650;DHT22;5881;48.522;7.682;2022-08-01T12:09:47;31.70;1.00
11650;DHT22;5881;48.522;7.682;2022-08-01T12:12:16;32.60;1.00
11650;DHT22;5881;48.522;7.682;2022-08-01T12:14:43;32.70;1.00
11650;DHT22;5881;48.522;7.682;2022-08-01T12:17:09;32.90;1.00
11650;DHT22;5881;48.522;7.682;2022-08-01T12:19:35;33.30;1.00
11650;DHT22;5881;48.522;7.682;2022-08-01T12:22:14;33.40;1.00
11650;DHT22;5881;48.522;7.682;2022-08-01T12:24:41;32.90;1.00
11650;DHT22;5881;48.522;7.682;2022-08-01T12:27:09;33.10;1.00
11650;DHT22;5881;48.522;7.682;2022-08-01T12:29:37;33.20;1.00
11650;DHT22;5881;48.522;7.682;2022-08-01T12:32:03;32.80;1.00
11650;DHT22;5881;48.522;7.682;2022-08-01T12:34:29;33.00;1.00
11650;DHT22;5881;48.522;7.682;2022-08-01T12:36:59;31.70;1.00
11650;DHT22;5881;48.522;7.682;2022-08-01T12:39:32;32.30;1.00
11650;DHT22;5881;48.522;7.682;2022-08-01T12:41:58;31.30;1.00
11650;DHT22;5881;48.522;7.682;2022-08-01T12:44:28;31.30;1.00
11650;DHT22;5881;48.522;7.682;2022-08-01T12:46:55;31.20;1.00
11650;DHT22;5881;48.522;7.682;2022-08-01T12:49:22;31.50;1.00
11650;DHT22;5881;48.522;7.682;2022-08-01T12:51:48;32.30;1.00
11650;DHT22;5881;48.522;7.682;2022-08-01T12:54:14;31.70;1.00
11650;DHT22;5881;48.522;7.682;2022-08-01T12:56:40;31.40;1.00
11650;DHT22;5881;48.522;7.682;2022-08-01T12:59:27;31.20;1.00
11650;DHT22;5881;48.522;7.682;2022-08-01T13:01:55;30.80;1.00
11650;DHT22;5881;48.522;7.682;2022-08-01T13:04:22;31.40;1.00
11650;DHT22;5881;48.522;7.682;2022-08-01T13:06:52;31.00;1.00
11650;DHT22;5881;48.522;7.682;2022-08-01T13:09:18;31.00;1.00
11650;DHT22;5881;48.522;7.682;2022-08-01T13:11:43;30.50;1.00
11650;DHT22;5881;48.522;7.682;2022-08-01T13:14:26;30.80;1.00
11650;DHT22;5881;48.522;7.682;2022-08-01T13:16:52;30.60;1.00
11650;DHT22;5881;48.522;7.682;2022-08-01T13:19:18;30.20;1.00
11650;DHT22;5881;48.522;7.682;2022-08-01T13:21:56;30.20;1.00
11650;DHT22;5881;48.522;7.682;2022-08-01T13:24:27;30.80;1.00
11650;DHT22;5881;48.522;7.682;2022-08-01T13:26:58;31.00;1.00
11650;DHT22;5881;48.522;7.682;2022-08-01T13:29:36;31.00;1.00
11650;DHT22;5881;48.522;7.682;2022-08-01T13:32:19;31.30;1.00
11650;DHT22;5881;48.522;7.682;2022-08-01T13:34:45;31.10;1.00
11650;DHT22;5881;48.522;7.682;2022-08-01T13:37:10;31.00;1.00
11650;DHT22;5881;48.522;7.682;2022-08-01T13:39:36;30.90;1.00
11650;DHT22;5881;48.522;7.682;2022-08-01T13:42:14;31.20;1.00
11650;DHT22;5881;48.522;7.682;2022-08-01T13:44:41;31.80;1.00
11650;DHT22;5881;48.522;7.682;2022-08-01T13:47:07;32.00;1.00
11650;DHT22;5881;48.522;7.682;2022-08-01T13:49:33;32.10;1.00
11650;DHT22;5881;48.522;7.682;2022-08-01T13:52:00;32.10;1.00
11650;DHT22;5881;48.522;7.682;2022-08-01T13:54:26;32.50;1.00
11650;DHT22;5881;48.522;7.682;2022-08-01T13:56:52;32.50;1.00
11650;DHT22;5881;48.522;7.682;2022-08-01T13:59:18;32.40;1.00
11650;DHT22;5881;48.522;7.682;2022-08-01T14:01:44;31.40;1.00
11650;DHT22;5881;48.522;7.682;2022-08-01T14:04:13;31.10;1.00
11650;DHT22;5881;48.522;7.682;2022-08-01T14:06:39;30.60;1.00
11650;DHT22;5881;48.522;7.682;2022-08-01T14:09:05;30.40;1.00
11650;DHT22;5881;48.522;7.682;2022-08-01T14:11:32;30.70;1.00
11650;DHT22;5881;48.522;7.682;2022-08-01T14:13:58;30.50;1.00
11650;DHT22;5881;48.522;7.682;2022-08-01T14:16:23;30.40;1.00
11650;DHT22;5881;48.522;7.682;2022-08-01T14:18:49;30.40;1.00
11650;DHT22;5881;48.522;7.682;2022-08-01T14:21:16;30.30;1.00
11650;DHT22;5881;48.522;7.682;2022-08-01T14:23:42;30.20;1.00
11650;DHT22;5881;48.522;7.682;2022-08-01T14:26:11;29.90;1.00
11650;DHT22;5881;48.522;7.682;2022-08-01T14:28:38;29.70;1.00
11650;DHT22;5881;48.522;7.682;2022-08-01T14:31:04;29.80;1.00
11650;DHT22;5881;48.522;7.682;2022-08-01T14:33:31;29.70;1.00
11650;DHT22;5881;48.522;7.682;2022-08-01T14:35:57;30.20;1.00
11650;DHT22;5881;48.522;7.682;2022-08-01T14:38:23;30.50;1.00
11650;DHT22;5881;48.522;7.682;2022-08-01T14:40:49;30.50;1.00
11650;DHT22;5881;48.522;7.682;2022-08-01T14:43:17;30.20;1.00
11650;DHT22;5881;48.522;7.682;2022-08-01T14:45:43;30.40;1.00
11650;DHT22;5881;48.522;7.682;2022-08-01T14:48:09;30.10;1.00
11650;DHT22;5881;48.522;7.682;2022-08-01T14:50:35;29.70;1.00
11650;DHT22;5881;48.522;7.682;2022-08-01T14:53:00;30.10;1.00
11650;DHT22;5881;48.522;7.682;2022-08-01T14:55:26;30.40;1.00
11650;DHT22;5881;48.522;7.682;2022-08-01T14:57:52;30.20;1.00
11650;DHT22;5881;48.522;7.682;2022-08-01T15:00:19;30.00;1.00
11650;DHT22;5881;48.522;7.682;2022-08-01T15:02:45;29.80;1.00
11650;DHT22;5881;48.522;7.682;2022-08-01T15:05:11;29.90;1.00
11650;DHT22;5881;48.522;7.682;2022-08-01T15:07:37;29.80;1.00
11650;DHT22;5881;48.522;7.682;2022-08-01T15:10:07;30.00;1.00
11650;DHT22;5881;48.522;7.682;2022-08-01T15:12:33;29.90;1.00
11650;DHT22;5881;48.522;7.682;2022-08-01T15:14:59;29.50;1.00
11650;DHT22;5881;48.522;7.682;2022-08-01T15:17:30;29.70;1.00
11650;DHT22;5881;48.522;7.682;2022-08-01T15:19:59;29.70;1.00
11650;DHT22;5881;48.522;7.682;2022-08-01T15:22:28;29.60;1.00
11650;DHT22;5881;48.522;7.682;2022-08-01T15:24:55;29.60;1.00
11650;DHT22;5881;48.522;7.682;2022-08-01T15:27:21;29.30;1.00
11650;DHT22;5881;48.522;7.682;2022-08-01T15:29:48;29.30;1.00
11650;DHT22;5881;48.522;7.682;2022-08-01T15:32:14;29.00;1.00
11650;DHT22;5881;48.522;7.682;2022-08-01T15:34:40;28.90;1.00
11650;DHT22;5881;48.522;7.682;2022-08-01T15:37:06;29.00;1.00
11650;DHT22;5881;48.522;7.682;2022-08-01T15:39:33;28.70;1.00
11650;DHT22;5881;48.522;7.682;2022-08-01T15:42:03;28.40;1.00
11650;DHT22;5881;48.522;7.682;2022-08-01T15:44:29;28.30;1.00
11650;DHT22;5881;48.522;7.682;2022-08-01T15:46:55;28.20;1.00
11650;DHT22;5881;48.522;7.682;2022-08-01T15:49:20;28.30;1.00
11650;DHT22;5881;48.522;7.682;2022-08-01T15:51:48;28.40;1.00
11650;DHT22;5881;48.522;7.682;2022-08-01T15:54:15;28.40;1.00
11650;DHT22;5881;48.522;7.682;2022-08-01T15:56:40;28.50;1.00
11650;DHT22;5881;48.522;7.682;2022-08-01T15:59:06;28.80;1.00
11650;DHT22;5881;48.522;7.682;2022-08-01T16:01:32;28.50;1.00
11650;DHT22;5881;48.522;7.682;2022-08-01T16:03:58;28.60;1.00
11650;DHT22;5881;48.522;7.682;2022-08-01T16:06:24;28.90;1.00
11650;DHT22;5881;48.522;7.682;2022-08-01T16:08:50;28.40;1.00
11650;DHT22;5881;48.522;7.682;2022-08-01T16:11:17;28.30;1.00
11650;DHT22;5881;48.522;7.682;2022-08-01T16:13:43;28.20;1.00
11650;DHT22;5881;48.522;7.682;2022-08-01T16:16:10;28.30;1.00
11650;DHT22;5881;48.522;7.682;2022-08-01T16:18:36;28.10;1.00
11650;DHT22;5881;48.522;7.682;2022-08-01T16:21:02;27.90;1.00
11650;DHT22;5881;48.522;7.682;2022-08-01T16:23:27;27.90;1.00
11650;DHT22;5881;48.522;7.682;2022-08-01T16:25:53;28.00;1.00
11650;DHT22;5881;48.522;7.682;2022-08-01T16:28:20;27.90;1.00
11650;DHT22;5881;48.522;7.682;2022-08-01T16:30:46;27.80;1.00
11650;DHT22;5881;48.522;7.682;2022-08-01T16:33:12;27.70;1.00
11650;DHT22;5881;48.522;7.682;2022-08-01T16:35:38;27.80;1.00
11650;DHT22;5881;48.522;7.682;2022-08-01T16:38:04;27.80;1.00